createdAt,value
2022-12-03T00:00:41.504Z,74.97
2022-12-03T00:03:08.634Z,75.00
2022-12-03T00:05:36.488Z,75.28
2022-12-03T00:08:03.962Z,74.56
2022-12-03T00:10:30.643Z,74.96
2022-12-03T00:12:58.459Z,74.51
2022-12-03T00:15:25.059Z,74.36
2022-12-03T00:17:52.600Z,74.68
2022-12-03T00:20:22.097Z,75.43
2022-12-03T00:22:49.830Z,75.14
2022-12-03T00:25:16.626Z,74.84
2022-12-03T00:27:46.398Z,74.81
2022-12-03T00:30:14.546Z,74.89
2022-12-03T00:32:42.233Z,75.09
2022-12-03T00:35:09.139Z,74.75
2022-12-03T00:37:36.900Z,74.85
2022-12-03T00:40:05.354Z,75.05
2022-12-03T00:42:32.470Z,74.89
2022-12-03T00:44:59.039Z,75.43
2022-12-03T00:47:25.538Z,75.46
2022-12-03T00:49:52.323Z,75.13
2022-12-03T00:52:18.870Z,75.67
2022-12-03T00:54:49.572Z,75.55
2022-12-03T00:57:16.799Z,75.47
2022-12-03T00:59:43.855Z,76.35
2022-12-03T01:02:10.511Z,74.86
2022-12-03T01:04:37.730Z,75.33
2022-12-03T01:07:04.900Z,75.62
2022-12-03T01:09:31.972Z,75.30
2022-12-03T01:11:58.912Z,75.50
2022-12-03T01:14:25.977Z,75.03
2022-12-03T01:16:53.675Z,76.40
2022-12-03T01:19:22.731Z,75.92
2022-12-03T01:21:50.797Z,75.41
2022-12-03T01:24:18.909Z,75.07
2022-12-03T01:26:45.366Z,75.51
2022-12-03T01:29:12.426Z,75.80
2022-12-03T01:31:58.229Z,75.91
2022-12-03T01:34:24.875Z,75.67
2022-12-03T01:36:52.561Z,75.33
2022-12-03T01:39:19.445Z,76.25
2022-12-03T01:41:48.686Z,75.96
2022-12-03T01:44:20.944Z,76.05
2022-12-03T01:46:48.414Z,76.16
2022-12-03T01:49:21.448Z,76.92
2022-12-03T01:51:49.699Z,76.37
2022-12-03T01:54:21.016Z,77.21
2022-12-03T01:56:48.262Z,76.23
2022-12-03T01:59:21.098Z,76.43
2022-12-03T02:01:47.696Z,77.03
2022-12-03T02:04:17.057Z,76.58
2022-12-03T02:06:44.470Z,76.50
2022-12-03T02:09:12.187Z,76.94
2022-12-03T02:11:47.173Z,77.35
2022-12-03T02:14:19.826Z,76.90
2022-12-03T02:16:46.813Z,76.68
2022-12-03T02:19:31.592Z,76.96
2022-12-03T02:22:07.739Z,76.99
2022-12-03T02:24:43.842Z,77.10
2022-12-03T02:27:10.237Z,76.53
2022-12-03T02:29:36.872Z,77.65
2022-12-03T02:32:04.098Z,77.49
2022-12-03T02:34:37.178Z,77.62
2022-12-03T02:37:07.848Z,77.60
2022-12-03T02:39:38.395Z,77.86
2022-12-03T02:42:25.394Z,77.38
2022-12-03T02:44:52.666Z,77.26
2022-12-03T02:47:21.322Z,78.20
2022-12-03T02:49:48.336Z,76.86
2022-12-03T02:52:14.929Z,77.82
2022-12-03T02:54:41.884Z,77.75
2022-12-03T02:57:08.777Z,77.26
2022-12-03T02:59:35.347Z,77.81
2022-12-03T03:02:01.857Z,76.92
2022-12-03T03:04:28.759Z,76.65
2022-12-03T03:06:55.280Z,77.76
2022-12-03T03:09:22.036Z,77.27
2022-12-03T03:11:48.467Z,76.61
2022-12-03T03:14:15.781Z,76.86
2022-12-03T03:16:42.277Z,77.39
2022-12-03T03:19:08.802Z,77.16
2022-12-03T03:21:35.197Z,76.30
2022-12-03T03:24:01.721Z,76.22
2022-12-03T03:26:28.227Z,76.21
2022-12-03T03:28:54.637Z,76.27
2022-12-03T03:31:24.062Z,75.49
2022-12-03T03:33:51.464Z,75.91
2022-12-03T03:36:19.686Z,76.20
2022-12-03T03:38:47.333Z,76.50
2022-12-03T03:41:15.090Z,75.22
2022-12-03T03:43:42.969Z,76.07
2022-12-03T03:46:10.365Z,76.36
2022-12-03T03:48:37.315Z,76.29
2022-12-03T03:51:08.905Z,76.75
2022-12-03T03:53:47.939Z,75.86
2022-12-03T03:56:19.757Z,75.82
2022-12-03T03:58:46.359Z,75.86
2022-12-03T04:01:14.089Z,76.52
2022-12-03T04:03:41.074Z,76.31
2022-12-03T04:06:08.136Z,75.97
2022-12-03T04:08:34.628Z,75.34
2022-12-03T04:11:19.468Z,76.15
2022-12-03T04:13:45.896Z,75.23
2022-12-03T04:16:12.344Z,75.99
2022-12-03T04:18:44.741Z,76.01
2022-12-03T04:21:31.294Z,76.05
2022-12-03T04:23:57.873Z,76.11
2022-12-03T04:26:42.606Z,75.79
2022-12-03T04:29:09.447Z,75.60
2022-12-03T04:31:54.199Z,75.50
2022-12-03T04:34:39.192Z,76.78
2022-12-03T04:37:06.079Z,76.66
2022-12-03T04:39:33.393Z,75.92
2022-12-03T04:41:59.874Z,76.00
2022-12-03T04:44:38.477Z,75.23
2022-12-03T04:47:17.298Z,75.93
2022-12-03T04:49:48.536Z,76.00
2022-12-03T04:52:19.747Z,75.65
2022-12-03T04:54:46.461Z,76.57
2022-12-03T04:57:13.133Z,76.27
2022-12-03T04:59:39.754Z,76.28
2022-12-03T05:02:06.786Z,76.43
2022-12-03T05:04:33.325Z,76.04
2022-12-03T05:06:59.775Z,76.06
2022-12-03T05:09:26.241Z,76.03
2022-12-03T05:11:52.724Z,76.30
2022-12-03T05:14:19.281Z,75.91
2022-12-03T05:16:45.894Z,76.23
2022-12-03T05:19:12.433Z,76.26
2022-12-03T05:21:38.983Z,75.97
2022-12-03T05:24:05.900Z,75.76
2022-12-03T05:26:32.469Z,76.52
2022-12-03T05:28:58.862Z,76.52
2022-12-03T05:31:25.284Z,76.29
2022-12-03T05:33:51.910Z,75.87
2022-12-03T05:36:18.731Z,75.95
2022-12-03T05:38:45.111Z,76.49
2022-12-03T05:41:30.197Z,76.77
2022-12-03T05:43:56.735Z,76.59
2022-12-03T05:46:25.902Z,76.61
2022-12-03T05:48:52.491Z,76.45
2022-12-03T05:51:18.926Z,76.85
2022-12-03T05:53:45.349Z,77.23
2022-12-03T05:56:11.786Z,77.35
2022-12-03T05:58:38.224Z,76.91
2022-12-03T06:01:04.787Z,76.09
2022-12-03T06:03:31.352Z,76.55
2022-12-03T06:05:57.823Z,76.72
2022-12-03T06:08:24.188Z,76.94
2022-12-03T06:10:50.725Z,76.56
2022-12-03T06:13:17.424Z,75.61
2022-12-03T06:15:44.345Z,76.05
2022-12-03T06:18:11.218Z,75.71
2022-12-03T06:20:37.811Z,75.80
2022-12-03T06:23:04.290Z,75.51
2022-12-03T06:25:30.768Z,75.78
2022-12-03T06:27:57.209Z,75.01
2022-12-03T06:30:23.662Z,75.27
2022-12-03T06:32:52.255Z,75.51
2022-12-03T06:35:18.763Z,75.44
2022-12-03T06:37:45.269Z,75.09
2022-12-03T06:40:13.315Z,74.29
2022-12-03T06:42:39.772Z,74.70
2022-12-03T06:45:06.684Z,74.54
2022-12-03T06:47:33.241Z,74.16
2022-12-03T06:49:59.683Z,74.14
2022-12-03T06:52:26.101Z,73.58
2022-12-03T06:54:52.865Z,74.25
2022-12-03T06:57:19.517Z,74.57
2022-12-03T06:59:45.994Z,74.25
2022-12-03T07:02:13.701Z,73.88
2022-12-03T07:04:45.938Z,73.68
2022-12-03T07:07:12.871Z,73.38
2022-12-03T07:09:39.315Z,73.42
2022-12-03T07:12:05.949Z,73.69
2022-12-03T07:14:32.479Z,73.78
2022-12-03T07:16:58.931Z,73.37
2022-12-03T07:19:32.155Z,73.31
2022-12-03T07:21:59.266Z,73.36
2022-12-03T07:24:25.742Z,73.26
2022-12-03T07:26:52.228Z,72.92
2022-12-03T07:29:18.666Z,72.89
2022-12-03T07:31:45.162Z,73.24
2022-12-03T07:34:11.717Z,73.30
2022-12-03T07:36:38.202Z,73.58
2022-12-03T07:39:05.197Z,72.96
2022-12-03T07:41:31.682Z,72.97
2022-12-03T07:43:58.140Z,73.07
2022-12-03T07:46:24.605Z,73.26
2022-12-03T07:48:51.104Z,72.72
2022-12-03T07:51:17.593Z,72.56
2022-12-03T07:53:44.228Z,72.61
2022-12-03T07:56:10.980Z,72.72
2022-12-03T07:58:37.388Z,72.32
2022-12-03T08:01:03.967Z,71.39
2022-12-03T08:03:30.571Z,72.21
2022-12-03T08:05:57.088Z,71.93
2022-12-03T08:08:23.475Z,72.07
2022-12-03T08:10:49.884Z,71.98
2022-12-03T08:13:18.070Z,72.20
2022-12-03T08:15:45.086Z,71.88
2022-12-03T08:18:17.723Z,72.30
2022-12-03T08:20:47.755Z,72.31
2022-12-03T08:23:24.528Z,72.91
2022-12-03T08:25:52.622Z,72.63
2022-12-03T08:28:22.095Z,72.73
2022-12-03T08:31:01.748Z,72.62
2022-12-03T08:33:33.662Z,73.32
2022-12-03T08:36:05.951Z,72.88
2022-12-03T08:38:32.368Z,73.50
2022-12-03T08:40:59.223Z,73.55
2022-12-03T08:43:28.098Z,73.28
2022-12-03T08:45:56.313Z,72.96
2022-12-03T08:48:40.671Z,73.76
2022-12-03T08:51:21.447Z,73.82
2022-12-03T08:53:52.525Z,73.89
2022-12-03T08:56:23.630Z,73.68
2022-12-03T08:59:03.039Z,74.03
2022-12-03T09:01:37.960Z,73.75
2022-12-03T09:04:21.281Z,74.08
2022-12-03T09:06:47.783Z,73.86
2022-12-03T09:09:14.290Z,73.98
2022-12-03T09:11:40.690Z,73.79
2022-12-03T09:14:07.131Z,74.33
2022-12-03T09:16:33.633Z,73.92
2022-12-03T09:19:00.081Z,73.58
2022-12-03T09:21:26.544Z,74.09
2022-12-03T09:23:53.194Z,74.13
2022-12-03T09:26:19.630Z,73.80
2022-12-03T09:28:48.146Z,73.86
2022-12-03T09:31:15.614Z,73.63
2022-12-03T09:33:42.310Z,73.79
2022-12-03T09:36:09.071Z,74.42
2022-12-03T09:38:35.556Z,74.30
2022-12-03T09:41:02.238Z,74.58
2022-12-03T09:44:02.698Z,74.42
2022-12-03T09:46:20.268Z,74.08
2022-12-03T09:48:46.877Z,73.98
2022-12-03T09:51:14.325Z,73.74
2022-12-03T09:53:41.548Z,73.61
2022-12-03T09:56:22.979Z,73.69
2022-12-03T09:58:49.962Z,73.39
2022-12-03T10:01:17.061Z,73.29
2022-12-03T10:03:49.276Z,73.38
2022-12-03T10:06:22.215Z,73.00
2022-12-03T10:08:53.396Z,73.14
2022-12-03T10:11:22.403Z,72.61
2022-12-03T10:13:49.435Z,72.86
2022-12-03T10:16:19.148Z,73.53
2022-12-03T10:18:48.751Z,73.79
2022-12-03T10:21:26.454Z,73.64
2022-12-03T10:24:32.828Z,73.15
2022-12-03T10:27:02.124Z,74.34
2022-12-03T10:29:34.821Z,73.63
2022-12-03T10:32:07.463Z,73.90
2022-12-03T10:34:45.733Z,73.48
2022-12-03T10:37:14.043Z,73.16
2022-12-03T10:39:56.664Z,73.27
2022-12-03T10:42:24.478Z,73.50
2022-12-03T10:45:08.141Z,73.47
2022-12-03T10:47:34.743Z,73.35
2022-12-03T10:50:03.945Z,72.87
2022-12-03T10:52:30.479Z,73.76
2022-12-03T10:54:57.055Z,73.71
2022-12-03T10:57:24.497Z,73.22
2022-12-03T10:59:51.215Z,73.34
2022-12-03T11:02:22.604Z,73.63
2022-12-03T11:04:49.539Z,74.04
2022-12-03T11:07:19.080Z,73.68
2022-12-03T11:09:49.320Z,73.77
2022-12-03T11:12:22.449Z,73.60
2022-12-03T11:14:48.803Z,73.52
2022-12-03T11:17:41.008Z,73.70
2022-12-03T11:20:30.481Z,73.36
2022-12-03T11:22:58.052Z,73.86
2022-12-03T11:25:24.425Z,73.44
2022-12-03T11:28:12.919Z,73.55
2022-12-03T11:30:48.520Z,73.44
2022-12-03T11:33:30.095Z,73.03
2022-12-03T11:36:02.599Z,73.02
2022-12-03T11:38:38.312Z,72.37
2022-12-03T11:41:22.035Z,71.30
2022-12-03T11:43:57.430Z,71.42
2022-12-03T11:46:27.572Z,70.88
2022-12-03T11:48:56.812Z,69.37
2022-12-03T11:51:25.929Z,70.29
2022-12-03T11:53:56.266Z,69.16
2022-12-03T11:56:25.452Z,68.70
2022-12-03T11:59:01.145Z,68.66
2022-12-03T12:01:38.995Z,68.86
2022-12-03T12:04:06.974Z,68.54
2022-12-03T12:06:44.407Z,67.96
2022-12-03T12:09:10.951Z,68.85
2022-12-03T12:11:43.700Z,68.25
2022-12-03T12:14:13.766Z,67.76
2022-12-03T12:16:52.328Z,67.70
2022-12-03T12:19:37.192Z,68.32
2022-12-03T12:22:23.128Z,67.91
2022-12-03T12:24:52.762Z,68.10
2022-12-03T12:27:22.329Z,68.48
2022-12-03T12:29:57.784Z,68.59
2022-12-03T12:32:52.838Z,67.91
2022-12-03T12:35:27.824Z,68.03
2022-12-03T12:38:01.385Z,67.79
2022-12-03T12:40:31.135Z,68.01
2022-12-03T12:43:10.284Z,67.86
2022-12-03T12:45:41.895Z,67.68
2022-12-03T12:48:14.382Z,67.40
2022-12-03T12:50:45.667Z,67.86
2022-12-03T12:53:33.269Z,67.61
2022-12-03T12:56:17.880Z,67.49
2022-12-03T12:58:44.404Z,67.89
2022-12-03T13:01:37.186Z,67.72
2022-12-03T13:04:12.438Z,67.83
2022-12-03T13:06:39.770Z,67.93
2022-12-03T13:09:22.245Z,68.48
2022-12-03T13:11:53.510Z,67.87
2022-12-03T13:14:25.895Z,67.63
2022-12-03T13:16:55.837Z,67.58
2022-12-03T13:19:22.720Z,67.80
2022-12-03T13:21:50.583Z,67.37
2022-12-03T13:24:54.125Z,67.21
2022-12-03T13:27:31.760Z,67.45
2022-12-03T13:30:18.878Z,67.43
2022-12-03T13:32:45.339Z,67.61
2022-12-03T13:35:26.607Z,67.76
2022-12-03T13:37:53.570Z,67.78
2022-12-03T13:40:28.250Z,67.71
2022-12-03T13:42:55.065Z,68.09
2022-12-03T13:45:24.571Z,68.08
2022-12-03T13:47:58.199Z,68.25
2022-12-03T13:50:38.081Z,68.09
2022-12-03T13:53:21.323Z,68.05
2022-12-03T13:55:50.508Z,68.46
2022-12-03T13:58:17.082Z,68.70
2022-12-03T14:00:43.720Z,69.42
2022-12-03T14:03:10.221Z,70.66
2022-12-03T14:05:36.774Z,69.48
2022-12-03T14:08:04.807Z,70.33
2022-12-03T14:10:31.574Z,71.47
2022-12-03T14:12:58.091Z,70.83
2022-12-03T14:15:26.170Z,69.86
2022-12-03T14:17:52.604Z,69.44
2022-12-03T14:20:19.492Z,69.25
2022-12-03T14:22:45.944Z,68.67
2022-12-03T14:25:13.087Z,68.83
2022-12-03T14:27:39.493Z,68.54
2022-12-03T14:30:06.675Z,69.05
2022-12-03T14:32:33.142Z,68.74
2022-12-03T14:35:00.465Z,68.96
2022-12-03T14:37:28.367Z,68.99
2022-12-03T14:39:55.074Z,68.89
2022-12-03T14:42:24.703Z,69.75
2022-12-03T14:44:51.876Z,68.83
2022-12-03T14:47:22.579Z,69.09
2022-12-03T14:49:49.540Z,69.46
2022-12-03T14:52:16.065Z,69.34
2022-12-03T14:54:43.044Z,69.60
2022-12-03T14:57:11.611Z,69.83
2022-12-03T14:59:38.837Z,69.57
2022-12-03T15:02:05.477Z,69.76
2022-12-03T15:04:31.963Z,69.25
2022-12-03T15:06:58.408Z,69.43
2022-12-03T15:09:24.867Z,69.33
2022-12-03T15:11:51.268Z,69.56
2022-12-03T15:14:17.739Z,70.19
2022-12-03T15:16:44.261Z,70.12
2022-12-03T15:19:10.826Z,69.95
2022-12-03T15:21:37.258Z,69.85
2022-12-03T15:24:04.105Z,69.72
2022-12-03T15:26:30.562Z,70.06
2022-12-03T15:28:57.145Z,70.03
2022-12-03T15:31:23.636Z,69.87
2022-12-03T15:33:50.103Z,70.43
2022-12-03T15:36:16.745Z,70.16
2022-12-03T15:38:43.177Z,70.81
2022-12-03T15:41:21.785Z,70.44
2022-12-03T15:43:49.160Z,70.49
2022-12-03T15:46:15.736Z,71.16
2022-12-03T15:48:42.279Z,71.19
2022-12-03T15:51:08.762Z,70.88
2022-12-03T15:53:35.415Z,70.99
2022-12-03T15:56:01.953Z,71.07
2022-12-03T15:58:28.691Z,70.96
2022-12-03T16:00:55.099Z,71.02
2022-12-03T16:03:21.631Z,71.23
2022-12-03T16:05:48.296Z,70.93
2022-12-03T16:08:14.755Z,71.46
2022-12-03T16:10:41.315Z,72.06
2022-12-03T16:13:07.808Z,72.01
2022-12-03T16:15:35.227Z,72.08
2022-12-03T16:18:01.822Z,71.78
2022-12-03T16:20:28.267Z,71.69
2022-12-03T16:22:54.785Z,71.86
2022-12-03T16:25:21.250Z,71.73
2022-12-03T16:27:47.768Z,71.97
2022-12-03T16:30:14.336Z,71.73
2022-12-03T16:32:40.772Z,71.69
2022-12-03T16:35:07.624Z,71.68
2022-12-03T16:37:34.047Z,71.67
2022-12-03T16:40:01.404Z,71.98
2022-12-03T16:42:27.837Z,72.31
2022-12-03T16:45:03.124Z,72.57
2022-12-03T16:47:33.853Z,72.48
2022-12-03T16:50:04.316Z,72.73
2022-12-03T16:52:30.784Z,72.59
2022-12-03T16:54:57.259Z,72.85
2022-12-03T16:57:24.933Z,72.93
2022-12-03T16:59:54.423Z,72.93
2022-12-03T17:02:21.088Z,72.53
2022-12-03T17:04:47.521Z,72.32
2022-12-03T17:07:13.950Z,72.57
2022-12-03T17:09:40.335Z,72.28
2022-12-03T17:12:07.008Z,72.50
2022-12-03T17:14:33.697Z,72.87
2022-12-03T17:17:00.381Z,72.65
2022-12-03T17:19:26.912Z,73.33
2022-12-03T17:21:54.073Z,72.76
2022-12-03T17:24:21.310Z,72.11
2022-12-03T17:26:47.776Z,72.34
2022-12-03T17:29:14.289Z,72.75
2022-12-03T17:31:42.383Z,73.31
2022-12-03T17:34:09.386Z,72.02
2022-12-03T17:36:35.901Z,72.67
2022-12-03T17:39:02.474Z,72.23
2022-12-03T17:41:28.978Z,72.20
2022-12-03T17:43:55.428Z,72.55
2022-12-03T17:46:22.122Z,72.79
2022-12-03T17:48:48.574Z,72.47
2022-12-03T17:51:15.123Z,71.85
2022-12-03T17:53:41.579Z,72.14
2022-12-03T17:56:08.045Z,71.96
2022-12-03T17:58:34.765Z,72.38
2022-12-03T18:01:03.166Z,71.94
2022-12-03T18:03:30.023Z,72.23
2022-12-03T18:05:56.600Z,72.82
2022-12-03T18:08:23.069Z,71.79
2022-12-03T18:10:49.721Z,72.71
2022-12-03T18:13:16.116Z,72.38
2022-12-03T18:15:42.628Z,71.23
2022-12-03T18:18:09.081Z,71.58
2022-12-03T18:20:35.897Z,71.52
2022-12-03T18:23:02.718Z,71.49
2022-12-03T18:25:30.075Z,70.89
2022-12-03T18:27:57.116Z,71.30
2022-12-03T18:30:23.815Z,71.56
2022-12-03T18:32:50.886Z,71.35
2022-12-03T18:35:18.015Z,71.74
2022-12-03T18:37:44.600Z,71.58
2022-12-03T18:40:20.145Z,71.35
2022-12-03T18:42:47.172Z,70.91
2022-12-03T18:45:14.970Z,70.60
2022-12-03T18:47:41.875Z,71.34
2022-12-03T18:50:09.988Z,71.34
2022-12-03T18:52:36.615Z,71.08
2022-12-03T18:55:04.997Z,71.28
2022-12-03T18:57:31.413Z,70.75
2022-12-03T18:59:58.057Z,71.65
2022-12-03T19:03:01.265Z,71.44
2022-12-03T19:05:13.169Z,71.42
2022-12-03T19:07:39.679Z,70.80
2022-12-03T19:10:07.155Z,70.79
2022-12-03T19:12:33.722Z,71.52
2022-12-03T19:15:00.303Z,72.08
2022-12-03T19:17:27.267Z,72.08
2022-12-03T19:19:54.345Z,71.79
2022-12-03T19:22:21.167Z,71.43
2022-12-03T19:24:47.621Z,71.46
2022-12-03T19:27:14.165Z,71.98
2022-12-03T19:29:41.415Z,71.38
2022-12-03T19:32:08.813Z,71.51
2022-12-03T19:34:35.241Z,71.43
2022-12-03T19:37:01.711Z,71.64
2022-12-03T19:39:28.145Z,71.60
2022-12-03T19:41:54.537Z,72.30
2022-12-03T19:44:21.055Z,71.63
2022-12-03T19:46:49.784Z,71.51
2022-12-03T19:49:20.728Z,71.94
2022-12-03T19:51:47.613Z,71.67
2022-12-03T19:54:14.424Z,71.51
2022-12-03T19:56:40.927Z,71.81
2022-12-03T19:59:07.810Z,71.70
2022-12-03T20:01:35.748Z,72.02
2022-12-03T20:04:03.261Z,71.83
2022-12-03T20:06:32.117Z,72.09
2022-12-03T20:09:01.169Z,71.83
2022-12-03T20:11:30.536Z,72.10
2022-12-03T20:14:06.716Z,72.60
2022-12-03T20:16:34.242Z,72.06
2022-12-03T20:19:04.348Z,72.24
2022-12-03T20:21:32.665Z,72.98
2022-12-03T20:23:59.654Z,72.99
2022-12-03T20:26:27.140Z,72.81
2022-12-03T20:28:55.055Z,72.74
2022-12-03T20:31:24.318Z,72.69
2022-12-03T20:33:54.500Z,71.95
2022-12-03T20:36:22.667Z,72.92
2022-12-03T20:38:52.974Z,72.63
2022-12-03T20:41:19.471Z,72.73
2022-12-03T20:43:46.023Z,72.99
2022-12-03T20:46:15.642Z,72.82
2022-12-03T20:48:43.894Z,72.74
2022-12-03T20:51:15.260Z,73.50
2022-12-03T20:53:42.076Z,72.97
2022-12-03T20:56:09.356Z,73.34
2022-12-03T20:58:36.496Z,73.29
2022-12-03T21:01:16.094Z,72.90
2022-12-03T21:03:43.603Z,72.83
2022-12-03T21:06:10.441Z,73.71
2022-12-03T21:08:41.972Z,73.77
2022-12-03T21:11:18.304Z,73.17
2022-12-03T21:13:47.784Z,73.04
2022-12-03T21:16:17.881Z,72.81
2022-12-03T21:18:45.042Z,73.33
2022-12-03T21:21:13.131Z,73.55
2022-12-03T21:23:39.967Z,73.71
2022-12-03T21:26:15.091Z,74.05
2022-12-03T21:28:43.964Z,73.61
2022-12-03T21:31:13.540Z,74.27
2022-12-03T21:33:40.886Z,74.24
2022-12-03T21:36:08.597Z,73.68
2022-12-03T21:38:36.439Z,74.11
2022-12-03T21:41:04.395Z,74.15
2022-12-03T21:43:32.289Z,74.71
2022-12-03T21:45:58.812Z,74.41
2022-12-03T21:48:25.581Z,73.93
2022-12-03T21:51:04.713Z,73.80
2022-12-03T21:53:32.740Z,73.42
2022-12-03T21:56:04.028Z,73.84
2022-12-03T21:58:30.588Z,74.03
2022-12-03T22:00:57.079Z,74.38
2022-12-03T22:03:23.612Z,74.52
2022-12-03T22:05:50.573Z,74.55
2022-12-03T22:08:17.321Z,73.96
2022-12-03T22:10:43.810Z,74.28
2022-12-03T22:13:10.333Z,73.97
2022-12-03T22:15:40.319Z,74.50
2022-12-03T22:18:06.829Z,74.70
2022-12-03T22:20:33.309Z,74.37
2022-12-03T22:23:00.087Z,74.26
2022-12-03T22:25:26.523Z,73.88
2022-12-03T22:27:55.950Z,74.37
2022-12-03T22:30:22.406Z,74.60
2022-12-03T22:32:48.852Z,74.24
2022-12-03T22:35:15.296Z,73.92
2022-12-03T22:37:41.695Z,74.13
2022-12-03T22:40:08.420Z,74.00
2022-12-03T22:42:34.889Z,74.28
2022-12-03T22:45:01.363Z,74.96
2022-12-03T22:47:27.808Z,74.86
2022-12-03T22:49:54.429Z,74.71
2022-12-03T22:52:20.980Z,75.02
2022-12-03T22:54:47.760Z,73.87
2022-12-03T22:57:14.549Z,74.63
2022-12-03T22:59:42.911Z,74.63
2022-12-03T23:02:09.543Z,74.45
2022-12-03T23:04:36.058Z,74.58
2022-12-03T23:07:02.482Z,75.04
2022-12-03T23:09:28.878Z,75.40
2022-12-03T23:11:55.400Z,75.17
2022-12-03T23:14:21.824Z,74.46
2022-12-03T23:16:48.292Z,74.68
2022-12-03T23:19:14.854Z,74.63
2022-12-03T23:21:41.685Z,74.66
2022-12-03T23:24:08.249Z,74.49
2022-12-03T23:26:37.445Z,75.33
2022-12-03T23:29:05.314Z,74.72
2022-12-03T23:31:33.317Z,74.42
2022-12-03T23:34:01.271Z,75.08
2022-12-03T23:36:29.949Z,75.10
2022-12-03T23:38:56.793Z,74.64
2022-12-03T23:41:24.646Z,74.93
2022-12-03T23:43:51.629Z,74.28
2022-12-03T23:46:22.096Z,74.65
2022-12-03T23:48:50.039Z,74.70
2022-12-03T23:51:22.330Z,74.09
2022-12-03T23:53:50.883Z,74.53
2022-12-03T23:56:20.811Z,74.73
2022-12-03T23:58:48.827Z,74.22
